sim
Sign-in with your pilot id or email,
or register
Callsign
Passwort

Schedule Details

Flight Number: OEO2228
Departure: Zurich Airport (LSZH) at 20:35
Arrival: Thessaloniki International Airport (LGTS) at 22:55

Weather Information
Getting current METAR information for LSZH 211050Z VRB01KT CAVOK 10/02 Q1030 NOSIG
Getting current METAR information for LGTS 211050Z 34016KT CAVOK 16/M01 Q1023 NOSIG

Schedule Frequency

Route Map